sensor_id;sensor_type;location;lat;lon;timestamp;temperature;humidity
10245;DHT22;5167;52.164;10.530;2023-02-28T00:02:16;2.60;20.30
10245;DHT22;5167;52.164;10.530;2023-02-28T00:04:45;2.60;20.90
10245;DHT22;5167;52.164;10.530;2023-02-28T00:07:11;2.60;20.60
10245;DHT22;5167;52.164;10.530;2023-02-28T00:09:36;2.60;20.70
10245;DHT22;5167;52.164;10.530;2023-02-28T00:12:02;2.50;20.00
10245;DHT22;5167;52.164;10.530;2023-02-28T00:14:38;2.50;20.40
10245;DHT22;5167;52.164;10.530;2023-02-28T00:17:03;2.40;20.30
10245;DHT22;5167;52.164;10.530;2023-02-28T00:19:29;2.40;20.70
10245;DHT22;5167;52.164;10.530;2023-02-28T00:21:54;2.30;21.20
10245;DHT22;5167;52.164;10.530;2023-02-28T00:24:20;2.30;21.60
10245;DHT22;5167;52.164;10.530;2023-02-28T00:26:45;2.20;20.80
10245;DHT22;5167;52.164;10.530;2023-02-28T00:29:11;2.20;21.60
10245;DHT22;5167;52.164;10.530;2023-02-28T00:31:37;2.20;21.70
10245;DHT22;5167;52.164;10.530;2023-02-28T00:34:02;2.20;21.70
10245;DHT22;5167;52.164;10.530;2023-02-28T00:36:27;2.20;22.30
10245;DHT22;5167;52.164;10.530;2023-02-28T00:38:53;2.10;23.10
10245;DHT22;5167;52.164;10.530;2023-02-28T00:41:18;2.20;23.00
10245;DHT22;5167;52.164;10.530;2023-02-28T00:43:44;2.20;22.80
10245;DHT22;5167;52.164;10.530;2023-02-28T00:46:10;2.10;23.10
10245;DHT22;5167;52.164;10.530;2023-02-28T00:48:36;2.10;22.90
10245;DHT22;5167;52.164;10.530;2023-02-28T00:51:01;2.10;23.40
10245;DHT22;5167;52.164;10.530;2023-02-28T00:53:27;2.10;23.40
10245;DHT22;5167;52.164;10.530;2023-02-28T00:55:53;2.10;23.60
10245;DHT22;5167;52.164;10.530;2023-02-28T00:58:19;2.10;23.40
10245;DHT22;5167;52.164;10.530;2023-02-28T01:00:44;2.10;24.00
10245;DHT22;5167;52.164;10.530;2023-02-28T01:03:14;2.10;23.90
10245;DHT22;5167;52.164;10.530;2023-02-28T01:05:40;2.10;24.30
10245;DHT22;5167;52.164;10.530;2023-02-28T01:08:06;2.10;24.30
10245;DHT22;5167;52.164;10.530;2023-02-28T01:10:32;2.10;24.20
10245;DHT22;5167;52.164;10.530;2023-02-28T01:12:58;2.20;24.20
10245;DHT22;5167;52.164;10.530;2023-02-28T01:15:23;2.10;23.90
10245;DHT22;5167;52.164;10.530;2023-02-28T01:17:49;2.10;23.30
10245;DHT22;5167;52.164;10.530;2023-02-28T01:20:14;2.10;23.30
10245;DHT22;5167;52.164;10.530;2023-02-28T01:22:40;2.20;23.50
10245;DHT22;5167;52.164;10.530;2023-02-28T01:25:05;2.10;23.40
10245;DHT22;5167;52.164;10.530;2023-02-28T01:27:31;2.10;23.40
10245;DHT22;5167;52.164;10.530;2023-02-28T01:29:56;2.00;24.40
10245;DHT22;5167;52.164;10.530;2023-02-28T01:32:22;2.10;24.80
10245;DHT22;5167;52.164;10.530;2023-02-28T01:34:47;2.10;25.20
10245;DHT22;5167;52.164;10.530;2023-02-28T01:37:13;2.10;24.90
10245;DHT22;5167;52.164;10.530;2023-02-28T01:39:38;2.10;25.40
10245;DHT22;5167;52.164;10.530;2023-02-28T01:42:04;2.10;24.70
10245;DHT22;5167;52.164;10.530;2023-02-28T01:47:36;2.10;25.40
10245;DHT22;5167;52.164;10.530;2023-02-28T01:50:07;2.10;24.60
10245;DHT22;5167;52.164;10.530;2023-02-28T01:52:34;2.20;25.00
10245;DHT22;5167;52.164;10.530;2023-02-28T01:55:02;2.20;25.30
10245;DHT22;5167;52.164;10.530;2023-02-28T01:57:33;2.10;24.60
10245;DHT22;5167;52.164;10.530;2023-02-28T02:00:09;2.20;24.60
10245;DHT22;5167;52.164;10.530;2023-02-28T02:02:39;2.20;24.60
10245;DHT22;5167;52.164;10.530;2023-02-28T02:05:09;2.20;24.70
10245;DHT22;5167;52.164;10.530;2023-02-28T02:07:40;2.20;24.70
10245;DHT22;5167;52.164;10.530;2023-02-28T02:10:17;2.20;25.00
10245;DHT22;5167;52.164;10.530;2023-02-28T02:13:11;2.20;24.90
10245;DHT22;5167;52.164;10.530;2023-02-28T02:15:53;2.20;23.80
10245;DHT22;5167;52.164;10.530;2023-02-28T02:29:43;2.10;24.40
10245;DHT22;5167;52.164;10.530;2023-02-28T02:32:38;2.20;23.70
10245;DHT22;5167;52.164;10.530;2023-02-28T02:38:24;2.20;23.30
10245;DHT22;5167;52.164;10.530;2023-02-28T02:40:55;2.10;23.50
10245;DHT22;5167;52.164;10.530;2023-02-28T02:44:00;2.00;23.70
10245;DHT22;5167;52.164;10.530;2023-02-28T02:46:37;2.00;23.80
10245;DHT22;5167;52.164;10.530;2023-02-28T02:49:07;2.00;24.20
10245;DHT22;5167;52.164;10.530;2023-02-28T02:51:34;1.90;23.80
10245;DHT22;5167;52.164;10.530;2023-02-28T02:54:08;1.90;24.10
10245;DHT22;5167;52.164;10.530;2023-02-28T02:56:39;1.90;23.90
10245;DHT22;5167;52.164;10.530;2023-02-28T02:59:11;1.90;24.30
10245;DHT22;5167;52.164;10.530;2023-02-28T03:01:38;2.00;24.30
10245;DHT22;5167;52.164;10.530;2023-02-28T03:04:13;1.90;24.00
10245;DHT22;5167;52.164;10.530;2023-02-28T03:06:41;1.90;24.00
10245;DHT22;5167;52.164;10.530;2023-02-28T03:09:07;1.90;23.60
10245;DHT22;5167;52.164;10.530;2023-02-28T03:11:32;1.90;24.70
10245;DHT22;5167;52.164;10.530;2023-02-28T03:19:38;1.90;24.20
10245;DHT22;5167;52.164;10.530;2023-02-28T03:22:39;1.90;23.90
10245;DHT22;5167;52.164;10.530;2023-02-28T03:25:16;1.90;24.00
10245;DHT22;5167;52.164;10.530;2023-02-28T03:33:55;2.00;24.90
10245;DHT22;5167;52.164;10.530;2023-02-28T03:36:27;2.10;25.60
10245;DHT22;5167;52.164;10.530;2023-02-28T03:38:59;2.10;25.60
10245;DHT22;5167;52.164;10.530;2023-02-28T03:41:35;2.00;25.70
10245;DHT22;5167;52.164;10.530;2023-02-28T03:44:10;2.10;25.70
10245;DHT22;5167;52.164;10.530;2023-02-28T03:46:43;2.10;26.20
10245;DHT22;5167;52.164;10.530;2023-02-28T03:49:20;2.20;25.30
10245;DHT22;5167;52.164;10.530;2023-02-28T03:51:48;2.20;25.50
10245;DHT22;5167;52.164;10.530;2023-02-28T03:54:20;2.10;25.20
10245;DHT22;5167;52.164;10.530;2023-02-28T03:57:10;2.20;25.00
10245;DHT22;5167;52.164;10.530;2023-02-28T03:59:44;2.20;25.50
10245;DHT22;5167;52.164;10.530;2023-02-28T04:02:12;2.20;25.60
10245;DHT22;5167;52.164;10.530;2023-02-28T04:04:38;2.00;25.60
10245;DHT22;5167;52.164;10.530;2023-02-28T04:07:07;2.30;25.50
10245;DHT22;5167;52.164;10.530;2023-02-28T04:09:32;2.20;25.60
10245;DHT22;5167;52.164;10.530;2023-02-28T04:11:58;2.30;25.60
10245;DHT22;5167;52.164;10.530;2023-02-28T04:14:24;2.30;25.10
10245;DHT22;5167;52.164;10.530;2023-02-28T04:16:50;2.30;25.00
10245;DHT22;5167;52.164;10.530;2023-02-28T04:19:16;2.30;25.10
10245;DHT22;5167;52.164;10.530;2023-02-28T04:21:44;2.20;24.30
10245;DHT22;5167;52.164;10.530;2023-02-28T04:24:13;2.20;25.00
10245;DHT22;5167;52.164;10.530;2023-02-28T04:26:44;2.20;24.30
10245;DHT22;5167;52.164;10.530;2023-02-28T04:29:11;2.10;24.50
10245;DHT22;5167;52.164;10.530;2023-02-28T04:31:37;2.10;24.50
10245;DHT22;5167;52.164;10.530;2023-02-28T04:34:03;2.10;25.50
10245;DHT22;5167;52.164;10.530;2023-02-28T04:36:28;2.00;25.10
10245;DHT22;5167;52.164;10.530;2023-02-28T04:38:54;2.10;25.60
10245;DHT22;5167;52.164;10.530;2023-02-28T04:41:20;2.10;25.70
10245;DHT22;5167;52.164;10.530;2023-02-28T04:43:46;2.10;25.30
10245;DHT22;5167;52.164;10.530;2023-02-28T04:46:12;2.10;26.20
10245;DHT22;5167;52.164;10.530;2023-02-28T04:48:39;2.10;25.90
10245;DHT22;5167;52.164;10.530;2023-02-28T04:51:07;2.10;26.10
10245;DHT22;5167;52.164;10.530;2023-02-28T04:53:34;2.10;26.80
10245;DHT22;5167;52.164;10.530;2023-02-28T04:56:00;2.00;26.30
10245;DHT22;5167;52.164;10.530;2023-02-28T04:58:26;2.10;26.20
10245;DHT22;5167;52.164;10.530;2023-02-28T05:00:52;2.10;27.10
10245;DHT22;5167;52.164;10.530;2023-02-28T05:03:18;2.10;26.40
10245;DHT22;5167;52.164;10.530;2023-02-28T05:05:44;2.10;27.20
10245;DHT22;5167;52.164;10.530;2023-02-28T05:08:10;2.10;26.70
10245;DHT22;5167;52.164;10.530;2023-02-28T05:10:36;2.10;26.80
10245;DHT22;5167;52.164;10.530;2023-02-28T05:13:01;2.10;26.90
10245;DHT22;5167;52.164;10.530;2023-02-28T05:15:27;2.10;27.40
10245;DHT22;5167;52.164;10.530;2023-02-28T05:17:52;2.10;26.90
10245;DHT22;5167;52.164;10.530;2023-02-28T05:20:18;2.20;27.50
10245;DHT22;5167;52.164;10.530;2023-02-28T05:22:43;2.20;27.10
10245;DHT22;5167;52.164;10.530;2023-02-28T05:25:13;2.20;26.40
10245;DHT22;5167;52.164;10.530;2023-02-28T05:27:41;2.20;26.90
10245;DHT22;5167;52.164;10.530;2023-02-28T05:30:07;2.20;26.70
10245;DHT22;5167;52.164;10.530;2023-02-28T05:32:36;2.20;26.60
10245;DHT22;5167;52.164;10.530;2023-02-28T05:35:02;2.30;26.50
10245;DHT22;5167;52.164;10.530;2023-02-28T05:37:27;2.30;26.50
10245;DHT22;5167;52.164;10.530;2023-02-28T05:39:53;2.20;26.20
10245;DHT22;5167;52.164;10.530;2023-02-28T05:42:18;2.30;26.00
10245;DHT22;5167;52.164;10.530;2023-02-28T05:44:44;2.30;26.50
10245;DHT22;5167;52.164;10.530;2023-02-28T05:47:09;2.20;25.90
10245;DHT22;5167;52.164;10.530;2023-02-28T05:49:35;2.30;26.70
10245;DHT22;5167;52.164;10.530;2023-02-28T05:52:00;2.30;26.50
10245;DHT22;5167;52.164;10.530;2023-02-28T05:54:26;2.30;26.70
10245;DHT22;5167;52.164;10.530;2023-02-28T05:56:51;2.30;26.50
10245;DHT22;5167;52.164;10.530;2023-02-28T05:59:16;2.40;26.80
10245;DHT22;5167;52.164;10.530;2023-02-28T06:01:44;2.40;26.40
10245;DHT22;5167;52.164;10.530;2023-02-28T06:04:19;2.40;26.20
10245;DHT22;5167;52.164;10.530;2023-02-28T06:06:45;2.40;26.20
10245;DHT22;5167;52.164;10.530;2023-02-28T06:09:11;2.50;26.20
10245;DHT22;5167;52.164;10.530;2023-02-28T06:11:37;2.50;26.00
10245;DHT22;5167;52.164;10.530;2023-02-28T06:14:03;2.40;26.00
10245;DHT22;5167;52.164;10.530;2023-02-28T06:16:29;2.50;26.00
10245;DHT22;5167;52.164;10.530;2023-02-28T06:18:58;2.50;26.00
10245;DHT22;5167;52.164;10.530;2023-02-28T06:21:23;2.50;26.30
10245;DHT22;5167;52.164;10.530;2023-02-28T06:23:49;2.60;25.50
10245;DHT22;5167;52.164;10.530;2023-02-28T06:26:15;2.50;25.80
10245;DHT22;5167;52.164;10.530;2023-02-28T06:28:41;2.70;24.10
10245;DHT22;5167;52.164;10.530;2023-02-28T06:31:11;2.60;24.70
10245;DHT22;5167;52.164;10.530;2023-02-28T06:33:38;2.70;24.40
10245;DHT22;5167;52.164;10.530;2023-02-28T06:36:05;2.60;24.40
10245;DHT22;5167;52.164;10.530;2023-02-28T06:38:31;2.60;24.00
10245;DHT22;5167;52.164;10.530;2023-02-28T06:40:58;2.80;23.50
10245;DHT22;5167;52.164;10.530;2023-02-28T06:43:25;2.90;23.60
10245;DHT22;5167;52.164;10.530;2023-02-28T06:45:55;2.70;23.70
10245;DHT22;5167;52.164;10.530;2023-02-28T06:48:24;2.70;23.30
10245;DHT22;5167;52.164;10.530;2023-02-28T06:50:49;2.70;22.80
10245;DHT22;5167;52.164;10.530;2023-02-28T06:53:15;2.80;22.60
10245;DHT22;5167;52.164;10.530;2023-02-28T06:55:41;2.80;21.70
10245;DHT22;5167;52.164;10.530;2023-02-28T06:58:07;2.80;21.50
10245;DHT22;5167;52.164;10.530;2023-02-28T07:00:43;3.00;21.10
10245;DHT22;5167;52.164;10.530;2023-02-28T07:03:09;2.90;20.40
10245;DHT22;5167;52.164;10.530;2023-02-28T07:05:36;3.00;19.80
10245;DHT22;5167;52.164;10.530;2023-02-28T07:08:03;3.00;19.60
10245;DHT22;5167;52.164;10.530;2023-02-28T07:10:29;3.10;19.60
10245;DHT22;5167;52.164;10.530;2023-02-28T07:12:54;3.10;19.50
10245;DHT22;5167;52.164;10.530;2023-02-28T07:15:20;3.20;19.30
10245;DHT22;5167;52.164;10.530;2023-02-28T07:17:45;3.20;18.90
10245;DHT22;5167;52.164;10.530;2023-02-28T07:20:11;3.30;19.10
10245;DHT22;5167;52.164;10.530;2023-02-28T07:22:37;3.30;18.90
10245;DHT22;5167;52.164;10.530;2023-02-28T07:25:04;3.30;18.80
10245;DHT22;5167;52.164;10.530;2023-02-28T07:27:30;3.30;18.70
10245;DHT22;5167;52.164;10.530;2023-02-28T07:29:55;3.30;18.70
10245;DHT22;5167;52.164;10.530;2023-02-28T07:32:21;3.40;18.70
10245;DHT22;5167;52.164;10.530;2023-02-28T07:34:46;3.40;18.90
10245;DHT22;5167;52.164;10.530;2023-02-28T07:37:12;3.40;19.20
10245;DHT22;5167;52.164;10.530;2023-02-28T07:39:37;3.40;19.20
10245;DHT22;5167;52.164;10.530;2023-02-28T07:42:06;3.40;19.20
10245;DHT22;5167;52.164;10.530;2023-02-28T07:44:35;3.50;19.50
10245;DHT22;5167;52.164;10.530;2023-02-28T07:47:11;3.50;19.40
10245;DHT22;5167;52.164;10.530;2023-02-28T07:49:37;3.50;18.80
10245;DHT22;5167;52.164;10.530;2023-02-28T07:52:04;3.50;18.50
10245;DHT22;5167;52.164;10.530;2023-02-28T07:54:30;3.60;18.00
10245;DHT22;5167;52.164;10.530;2023-02-28T07:56:56;3.50;17.50
10245;DHT22;5167;52.164;10.530;2023-02-28T07:59:21;3.60;17.30
10245;DHT22;5167;52.164;10.530;2023-02-28T08:01:47;3.60;17.40
10245;DHT22;5167;52.164;10.530;2023-02-28T08:04:16;3.60;16.90
10245;DHT22;5167;52.164;10.530;2023-02-28T08:06:41;3.60;16.20
10245;DHT22;5167;52.164;10.530;2023-02-28T08:09:07;3.70;17.10
10245;DHT22;5167;52.164;10.530;2023-02-28T08:11:32;3.80;17.40
10245;DHT22;5167;52.164;10.530;2023-02-28T08:13:58;3.90;17.40
10245;DHT22;5167;52.164;10.530;2023-02-28T08:16:23;4.00;16.40
10245;DHT22;5167;52.164;10.530;2023-02-28T08:18:51;4.10;15.30
10245;DHT22;5167;52.164;10.530;2023-02-28T08:21:17;4.20;14.00
10245;DHT22;5167;52.164;10.530;2023-02-28T08:23:43;4.30;12.90
10245;DHT22;5167;52.164;10.530;2023-02-28T08:26:08;4.40;12.70
10245;DHT22;5167;52.164;10.530;2023-02-28T08:28:34;4.50;13.00
10245;DHT22;5167;52.164;10.530;2023-02-28T08:31:01;4.70;12.00
10245;DHT22;5167;52.164;10.530;2023-02-28T08:33:31;4.70;11.90
10245;DHT22;5167;52.164;10.530;2023-02-28T08:35:57;4.80;11.10
10245;DHT22;5167;52.164;10.530;2023-02-28T08:38:23;4.90;10.70
10245;DHT22;5167;52.164;10.530;2023-02-28T08:40:49;5.00;9.80
10245;DHT22;5167;52.164;10.530;2023-02-28T08:43:14;5.00;10.40
10245;DHT22;5167;52.164;10.530;2023-02-28T08:45:40;5.00;9.70
10245;DHT22;5167;52.164;10.530;2023-02-28T08:48:05;5.10;9.90
10245;DHT22;5167;52.164;10.530;2023-02-28T08:50:31;5.10;9.10
10245;DHT22;5167;52.164;10.530;2023-02-28T08:52:56;5.20;8.60
10245;DHT22;5167;52.164;10.530;2023-02-28T08:55:22;5.20;8.90
10245;DHT22;5167;52.164;10.530;2023-02-28T08:57:47;5.40;8.70
10245;DHT22;5167;52.164;10.530;2023-02-28T09:00:13;5.50;8.60
10245;DHT22;5167;52.164;10.530;2023-02-28T09:02:39;5.50;8.50
10245;DHT22;5167;52.164;10.530;2023-02-28T09:05:05;5.60;9.00
10245;DHT22;5167;52.164;10.530;2023-02-28T09:07:31;5.60;9.10
10245;DHT22;5167;52.164;10.530;2023-02-28T09:09:56;5.70;9.00
10245;DHT22;5167;52.164;10.530;2023-02-28T09:12:26;5.80;8.00
10245;DHT22;5167;52.164;10.530;2023-02-28T09:14:53;5.90;8.00
10245;DHT22;5167;52.164;10.530;2023-02-28T09:17:19;5.90;7.00
10245;DHT22;5167;52.164;10.530;2023-02-28T09:19:45;6.00;7.50
10245;DHT22;5167;52.164;10.530;2023-02-28T09:22:12;6.20;8.20
10245;DHT22;5167;52.164;10.530;2023-02-28T09:24:38;6.40;7.30
10245;DHT22;5167;52.164;10.530;2023-02-28T09:27:04;6.40;5.60
10245;DHT22;5167;52.164;10.530;2023-02-28T09:29:33;6.60;5.20
10245;DHT22;5167;52.164;10.530;2023-02-28T09:31:59;6.70;5.00
10245;DHT22;5167;52.164;10.530;2023-02-28T09:34:26;6.60;5.00
10245;DHT22;5167;52.164;10.530;2023-02-28T09:36:52;6.70;5.00
10245;DHT22;5167;52.164;10.530;2023-02-28T09:39:20;6.90;5.00
10245;DHT22;5167;52.164;10.530;2023-02-28T09:41:50;7.00;5.00
10245;DHT22;5167;52.164;10.530;2023-02-28T09:44:30;7.10;5.00
10245;DHT22;5167;52.164;10.530;2023-02-28T09:47:01;7.00;5.00
10245;DHT22;5167;52.164;10.530;2023-02-28T09:49:39;7.10;5.00
10245;DHT22;5167;52.164;10.530;2023-02-28T09:52:11;7.20;5.00
10245;DHT22;5167;52.164;10.530;2023-02-28T09:54:37;7.20;5.00
10245;DHT22;5167;52.164;10.530;2023-02-28T10:02:41;7.30;5.00
10245;DHT22;5167;52.164;10.530;2023-02-28T10:05:12;7.50;5.00
10245;DHT22;5167;52.164;10.530;2023-02-28T10:07:50;7.50;5.00
10245;DHT22;5167;52.164;10.530;2023-02-28T10:10:28;7.70;5.00
10245;DHT22;5167;52.164;10.530;2023-02-28T10:12:59;7.70;5.00
10245;DHT22;5167;52.164;10.530;2023-02-28T10:15:29;7.80;5.00
10245;DHT22;5167;52.164;10.530;2023-02-28T10:18:00;7.80;5.00
10245;DHT22;5167;52.164;10.530;2023-02-28T10:20:26;8.00;5.00
10245;DHT22;5167;52.164;10.530;2023-02-28T10:25:29;7.70;5.00
10245;DHT22;5167;52.164;10.530;2023-02-28T10:28:11;7.80;5.00
10245;DHT22;5167;52.164;10.530;2023-02-28T10:30:44;7.80;5.00
10245;DHT22;5167;52.164;10.530;2023-02-28T10:35:54;7.80;5.00
10245;DHT22;5167;52.164;10.530;2023-02-28T10:38:31;7.90;5.00
10245;DHT22;5167;52.164;10.530;2023-02-28T10:41:27;7.90;5.00
10245;DHT22;5167;52.164;10.530;2023-02-28T10:44:17;8.00;5.00
10245;DHT22;5167;52.164;10.530;2023-02-28T10:46:45;7.90;5.00
10245;DHT22;5167;52.164;10.530;2023-02-28T10:49:20;7.90;5.00
10245;DHT22;5167;52.164;10.530;2023-02-28T10:51:55;8.00;5.00
10245;DHT22;5167;52.164;10.530;2023-02-28T10:54:27;8.10;5.00
10245;DHT22;5167;52.164;10.530;2023-02-28T10:57:16;8.10;5.00
10245;DHT22;5167;52.164;10.530;2023-02-28T10:59:41;8.10;5.00
10245;DHT22;5167;52.164;10.530;2023-02-28T11:02:31;8.10;5.00
10245;DHT22;5167;52.164;10.530;2023-02-28T11:04:56;8.20;5.00
10245;DHT22;5167;52.164;10.530;2023-02-28T11:07:23;8.20;5.00
10245;DHT22;5167;52.164;10.530;2023-02-28T11:09:52;8.30;5.00
10245;DHT22;5167;52.164;10.530;2023-02-28T11:12:38;8.40;5.00
10245;DHT22;5167;52.164;10.530;2023-02-28T11:15:27;8.40;5.00
10245;DHT22;5167;52.164;10.530;2023-02-28T11:17:56;8.40;5.00
10245;DHT22;5167;52.164;10.530;2023-02-28T11:20:26;8.40;5.00
10245;DHT22;5167;52.164;10.530;2023-02-28T11:22:53;8.30;5.00
10245;DHT22;5167;52.164;10.530;2023-02-28T11:25:26;8.40;5.00
10245;DHT22;5167;52.164;10.530;2023-02-28T11:27:56;8.30;5.00
10245;DHT22;5167;52.164;10.530;2023-02-28T11:30:27;8.30;5.00
10245;DHT22;5167;52.164;10.530;2023-02-28T11:32:53;8.20;5.00
10245;DHT22;5167;52.164;10.530;2023-02-28T11:35:31;8.30;5.00
10245;DHT22;5167;52.164;10.530;2023-02-28T11:38:00;8.30;5.00
10245;DHT22;5167;52.164;10.530;2023-02-28T11:40:35;8.20;5.00
10245;DHT22;5167;52.164;10.530;2023-02-28T11:43:05;8.30;5.00
10245;DHT22;5167;52.164;10.530;2023-02-28T11:48:22;8.30;5.00
10245;DHT22;5167;52.164;10.530;2023-02-28T11:56:18;8.30;5.00
10245;DHT22;5167;52.164;10.530;2023-02-28T12:05:29;8.30;5.00
10245;DHT22;5167;52.164;10.530;2023-02-28T12:10:37;8.10;5.00
10245;DHT22;5167;52.164;10.530;2023-02-28T12:13:21;8.00;5.00
10245;DHT22;5167;52.164;10.530;2023-02-28T12:18:44;7.90;5.00
10245;DHT22;5167;52.164;10.530;2023-02-28T12:21:40;7.90;5.00
10245;DHT22;5167;52.164;10.530;2023-02-28T12:26:43;7.80;5.00
10245;DHT22;5167;52.164;10.530;2023-02-28T12:29:28;7.80;5.00
10245;DHT22;5167;52.164;10.530;2023-02-28T12:32:09;7.80;5.00
10245;DHT22;5167;52.164;10.530;2023-02-28T12:34:46;7.80;5.00
10245;DHT22;5167;52.164;10.530;2023-02-28T12:37:24;7.70;5.00
10245;DHT22;5167;52.164;10.530;2023-02-28T12:39:55;7.70;5.00
10245;DHT22;5167;52.164;10.530;2023-02-28T12:42:28;7.70;5.00
10245;DHT22;5167;52.164;10.530;2023-02-28T12:44:59;7.60;5.00
10245;DHT22;5167;52.164;10.530;2023-02-28T12:47:26;7.50;5.00
10245;DHT22;5167;52.164;10.530;2023-02-28T12:50:07;7.50;5.00
10245;DHT22;5167;52.164;10.530;2023-02-28T12:53:09;7.50;5.00
10245;DHT22;5167;52.164;10.530;2023-02-28T12:58:43;7.40;5.00
10245;DHT22;5167;52.164;10.530;2023-02-28T13:01:54;7.40;5.00
10245;DHT22;5167;52.164;10.530;2023-02-28T13:10:43;7.30;5.00
10245;DHT22;5167;52.164;10.530;2023-02-28T13:13:15;7.40;5.00
10245;DHT22;5167;52.164;10.530;2023-02-28T13:16:00;7.40;5.00
10245;DHT22;5167;52.164;10.530;2023-02-28T13:18:38;7.30;5.00
10245;DHT22;5167;52.164;10.530;2023-02-28T13:21:09;7.30;5.00
10245;DHT22;5167;52.164;10.530;2023-02-28T13:26:09;7.30;5.00
10245;DHT22;5167;52.164;10.530;2023-02-28T13:28:58;7.20;5.00
10245;DHT22;5167;52.164;10.530;2023-02-28T13:31:24;7.30;5.00
10245;DHT22;5167;52.164;10.530;2023-02-28T13:36:31;7.30;5.00
10245;DHT22;5167;52.164;10.530;2023-02-28T13:38:59;7.30;5.00
10245;DHT22;5167;52.164;10.530;2023-02-28T13:46:26;7.30;5.00
10245;DHT22;5167;52.164;10.530;2023-02-28T13:48:52;7.30;5.00
10245;DHT22;5167;52.164;10.530;2023-02-28T13:51:37;7.30;5.00
10245;DHT22;5167;52.164;10.530;2023-02-28T13:57:11;7.20;5.00
10245;DHT22;5167;52.164;10.530;2023-02-28T14:00:37;7.30;5.00
10245;DHT22;5167;52.164;10.530;2023-02-28T14:03:17;7.20;5.00
10245;DHT22;5167;52.164;10.530;2023-02-28T14:05:46;7.20;5.00
10245;DHT22;5167;52.164;10.530;2023-02-28T14:08:16;7.10;5.00
10245;DHT22;5167;52.164;10.530;2023-02-28T14:18:42;7.00;5.00
10245;DHT22;5167;52.164;10.530;2023-02-28T14:21:20;7.00;5.00
10245;DHT22;5167;52.164;10.530;2023-02-28T14:24:03;7.00;5.00
10245;DHT22;5167;52.164;10.530;2023-02-28T14:27:13;7.00;5.00
10245;DHT22;5167;52.164;10.530;2023-02-28T14:37:44;7.00;5.00
10245;DHT22;5167;52.164;10.530;2023-02-28T14:40:32;7.00;5.00
10245;DHT22;5167;52.164;10.530;2023-02-28T14:43:22;6.90;5.00
10245;DHT22;5167;52.164;10.530;2023-02-28T14:46:06;6.90;5.00
10245;DHT22;5167;52.164;10.530;2023-02-28T14:48:32;6.90;5.00
10245;DHT22;5167;52.164;10.530;2023-02-28T14:51:00;6.90;5.00
10245;DHT22;5167;52.164;10.530;2023-02-28T14:53:29;6.90;5.00
10245;DHT22;5167;52.164;10.530;2023-02-28T14:55:55;6.90;5.00
10245;DHT22;5167;52.164;10.530;2023-02-28T14:58:32;7.00;5.00
10245;DHT22;5167;52.164;10.530;2023-02-28T15:01:00;7.00;5.00
10245;DHT22;5167;52.164;10.530;2023-02-28T15:03:37;7.00;5.00
10245;DHT22;5167;52.164;10.530;2023-02-28T15:06:16;7.00;5.00
10245;DHT22;5167;52.164;10.530;2023-02-28T15:08:44;6.90;5.00
10245;DHT22;5167;52.164;10.530;2023-02-28T15:11:18;6.90;5.00
10245;DHT22;5167;52.164;10.530;2023-02-28T15:13:50;6.90;5.00
10245;DHT22;5167;52.164;10.530;2023-02-28T15:16:22;6.90;5.00
10245;DHT22;5167;52.164;10.530;2023-02-28T15:19:00;6.90;5.00
10245;DHT22;5167;52.164;10.530;2023-02-28T15:21:33;6.90;5.00
10245;DHT22;5167;52.164;10.530;2023-02-28T15:24:16;7.00;5.00
10245;DHT22;5167;52.164;10.530;2023-02-28T15:26:53;7.00;5.00
10245;DHT22;5167;52.164;10.530;2023-02-28T15:29:22;7.00;5.00
10245;DHT22;5167;52.164;10.530;2023-02-28T15:31:51;7.00;5.00
10245;DHT22;5167;52.164;10.530;2023-02-28T15:34:26;7.00;5.00
10245;DHT22;5167;52.164;10.530;2023-02-28T15:36:52;7.00;5.00
10245;DHT22;5167;52.164;10.530;2023-02-28T15:39:24;7.00;5.00
10245;DHT22;5167;52.164;10.530;2023-02-28T15:41:52;7.00;5.00
10245;DHT22;5167;52.164;10.530;2023-02-28T15:44:27;6.90;5.00
10245;DHT22;5167;52.164;10.530;2023-02-28T15:46:57;6.90;5.00
10245;DHT22;5167;52.164;10.530;2023-02-28T15:49:23;6.90;5.00
10245;DHT22;5167;52.164;10.530;2023-02-28T15:51:50;6.90;5.00
10245;DHT22;5167;52.164;10.530;2023-02-28T15:54:22;7.00;5.00
10245;DHT22;5167;52.164;10.530;2023-02-28T15:56:51;6.90;5.00
10245;DHT22;5167;52.164;10.530;2023-02-28T15:59:31;6.90;5.00
10245;DHT22;5167;52.164;10.530;2023-02-28T16:02:16;7.00;5.00
10245;DHT22;5167;52.164;10.530;2023-02-28T16:07:36;6.90;5.00
10245;DHT22;5167;52.164;10.530;2023-02-28T16:10:02;6.80;5.00
10245;DHT22;5167;52.164;10.530;2023-02-28T16:12:30;6.90;5.00
10245;DHT22;5167;52.164;10.530;2023-02-28T16:15:00;6.90;5.00
10245;DHT22;5167;52.164;10.530;2023-02-28T16:17:33;6.80;5.00
10245;DHT22;5167;52.164;10.530;2023-02-28T16:19:59;6.80;5.00
10245;DHT22;5167;52.164;10.530;2023-02-28T16:22:24;6.80;5.00
10245;DHT22;5167;52.164;10.530;2023-02-28T16:24:50;6.80;5.00
10245;DHT22;5167;52.164;10.530;2023-02-28T16:27:22;6.70;5.00
10245;DHT22;5167;52.164;10.530;2023-02-28T16:29:50;6.80;5.00
10245;DHT22;5167;52.164;10.530;2023-02-28T16:32:15;6.80;5.00
10245;DHT22;5167;52.164;10.530;2023-02-28T16:34:43;6.70;5.00
10245;DHT22;5167;52.164;10.530;2023-02-28T16:37:14;6.80;5.00
10245;DHT22;5167;52.164;10.530;2023-02-28T16:39:40;6.70;5.00
10245;DHT22;5167;52.164;10.530;2023-02-28T16:42:07;6.70;5.00
10245;DHT22;5167;52.164;10.530;2023-02-28T16:44:36;6.70;5.00
10245;DHT22;5167;52.164;10.530;2023-02-28T16:47:03;6.60;5.00
10245;DHT22;5167;52.164;10.530;2023-02-28T16:49:29;6.70;5.00
10245;DHT22;5167;52.164;10.530;2023-02-28T16:51:54;6.60;5.00
10245;DHT22;5167;52.164;10.530;2023-02-28T16:54:20;6.60;5.00
10245;DHT22;5167;52.164;10.530;2023-02-28T16:56:47;6.60;5.00
10245;DHT22;5167;52.164;10.530;2023-02-28T16:59:13;6.60;5.00
10245;DHT22;5167;52.164;10.530;2023-02-28T17:01:40;6.50;5.00
10245;DHT22;5167;52.164;10.530;2023-02-28T17:04:05;6.50;5.00
10245;DHT22;5167;52.164;10.530;2023-02-28T17:06:31;6.50;5.00
10245;DHT22;5167;52.164;10.530;2023-02-28T17:08:57;6.60;5.00
10245;DHT22;5167;52.164;10.530;2023-02-28T17:11:24;6.50;5.00
10245;DHT22;5167;52.164;10.530;2023-02-28T17:13:49;6.50;5.00
10245;DHT22;5167;52.164;10.530;2023-02-28T17:16:22;6.40;5.00
10245;DHT22;5167;52.164;10.530;2023-02-28T17:18:48;6.40;5.00
10245;DHT22;5167;52.164;10.530;2023-02-28T17:21:15;6.40;5.00
10245;DHT22;5167;52.164;10.530;2023-02-28T17:23:41;6.30;5.00
10245;DHT22;5167;52.164;10.530;2023-02-28T17:26:08;6.30;5.00
10245;DHT22;5167;52.164;10.530;2023-02-28T17:28:35;6.20;5.00
10245;DHT22;5167;52.164;10.530;2023-02-28T17:31:00;6.20;5.00
10245;DHT22;5167;52.164;10.530;2023-02-28T17:33:26;6.20;5.00
10245;DHT22;5167;52.164;10.530;2023-02-28T17:35:51;6.20;5.00
10245;DHT22;5167;52.164;10.530;2023-02-28T17:38:19;6.10;5.00
10245;DHT22;5167;52.164;10.530;2023-02-28T17:40:44;6.10;5.00
10245;DHT22;5167;52.164;10.530;2023-02-28T17:43:10;6.00;5.00
10245;DHT22;5167;52.164;10.530;2023-02-28T17:45:36;6.00;5.00
10245;DHT22;5167;52.164;10.530;2023-02-28T17:48:02;5.90;5.00
10245;DHT22;5167;52.164;10.530;2023-02-28T17:50:28;5.90;5.00
10245;DHT22;5167;52.164;10.530;2023-02-28T17:52:53;5.80;5.00
10245;DHT22;5167;52.164;10.530;2023-02-28T17:55:19;5.80;5.00
10245;DHT22;5167;52.164;10.530;2023-02-28T17:57:44;5.70;5.00